createdAt,value
2017-06-27T00:00:46.630Z,100317.28
2017-06-27T00:03:16.977Z,100308.78
2017-06-27T00:05:47.563Z,100309.38
2017-06-27T00:08:18.813Z,100319.13
2017-06-27T00:10:49.074Z,100310.45
2017-06-27T00:13:18.870Z,100310.17
2017-06-27T00:15:48.642Z,100312.06
2017-06-27T00:18:19.232Z,100314.50
2017-06-27T00:20:49.089Z,100318.23
2017-06-27T00:23:19.173Z,100319.50
2017-06-27T00:25:51.057Z,100312.92
2017-06-27T00:28:20.572Z,100302.67
2017-06-27T00:30:50.355Z,100298.41
2017-06-27T00:33:20.127Z,100299.23
2017-06-27T00:35:49.897Z,100296.86
2017-06-27T00:38:19.671Z,100298.33
2017-06-27T00:40:49.432Z,100297.58
2017-06-27T00:43:19.226Z,100300.34
2017-06-27T00:45:49.213Z,100295.23
2017-06-27T00:48:18.957Z,100298.22
2017-06-27T00:50:48.737Z,100301.75
2017-06-27T00:53:19.208Z,100300.93
2017-06-27T00:55:49.161Z,100302.60
2017-06-27T00:58:18.958Z,100297.83
2017-06-27T01:00:48.746Z,100304.64
2017-06-27T01:03:19.129Z,100302.98
2017-06-27T01:05:48.913Z,100307.42
2017-06-27T01:08:18.867Z,100296.45
2017-06-27T01:10:49.401Z,100298.17
2017-06-27T01:13:19.245Z,100298.66
2017-06-27T01:15:48.972Z,100292.32
2017-06-27T01:18:18.678Z,100299.27
2017-06-27T01:20:49.149Z,100292.23
2017-06-27T01:23:18.940Z,100292.89
2017-06-27T01:25:49.301Z,100290.86
2017-06-27T01:28:19.647Z,100291.66
2017-06-27T01:30:50.209Z,100298.92
2017-06-27T01:33:20.463Z,100296.14
2017-06-27T01:35:50.133Z,100297.70
2017-06-27T01:38:20.865Z,100301.64
2017-06-27T01:40:50.538Z,100300.31
2017-06-27T01:43:20.905Z,100300.79
2017-06-27T01:45:50.655Z,100305.69
2017-06-27T01:48:21.249Z,100297.08
2017-06-27T01:50:51.520Z,100296.00
2017-06-27T01:53:21.277Z,100292.34
2017-06-27T01:55:50.758Z,100288.37
2017-06-27T01:58:20.458Z,100293.51
2017-06-27T02:00:50.240Z,100291.52
2017-06-27T02:03:20.002Z,100293.23
2017-06-27T02:05:49.818Z,100288.19
2017-06-27T02:08:19.533Z,100287.99
2017-06-27T02:10:49.838Z,100277.70
2017-06-27T02:13:19.581Z,100282.79
2017-06-27T02:15:49.371Z,100284.11
2017-06-27T02:18:19.110Z,100282.02
2017-06-27T02:20:48.927Z,100282.55
2017-06-27T02:23:18.737Z,100282.62
2017-06-27T02:25:49.042Z,100284.50
2017-06-27T02:28:18.782Z,100282.16
2017-06-27T02:30:51.776Z,100285.81
2017-06-27T02:33:21.462Z,100277.53
2017-06-27T02:35:51.172Z,100275.81
2017-06-27T02:38:20.938Z,100278.69
2017-06-27T02:40:51.101Z,100287.03
2017-06-27T02:43:20.861Z,100292.90
2017-06-27T02:45:50.530Z,100286.14
2017-06-27T02:48:20.258Z,100285.33
2017-06-27T02:50:49.982Z,100294.16
2017-06-27T02:53:19.681Z,100304.44
2017-06-27T02:55:49.390Z,100305.13
2017-06-27T02:58:19.130Z,100309.41
2017-06-27T03:00:48.922Z,100312.94
2017-06-27T03:03:18.665Z,100314.44
2017-06-27T03:05:48.378Z,100306.44
2017-06-27T03:08:18.248Z,100309.03
2017-06-27T03:10:47.978Z,100306.05
2017-06-27T03:13:17.726Z,100304.03
2017-06-27T03:15:47.621Z,100298.09
2017-06-27T03:18:17.426Z,100305.91
2017-06-27T03:20:47.243Z,100301.47
2017-06-27T03:23:16.941Z,100301.86
2017-06-27T03:25:47.253Z,100295.68
2017-06-27T03:28:17.021Z,100301.44
2017-06-27T03:30:46.891Z,100293.70
2017-06-27T03:33:16.670Z,100294.40
2017-06-27T03:35:46.463Z,100293.78
2017-06-27T03:38:18.648Z,100306.80
2017-06-27T03:40:48.532Z,100307.72
2017-06-27T03:43:18.237Z,100303.41
2017-06-27T03:45:48.097Z,100311.91
2017-06-27T03:48:17.905Z,100311.41
2017-06-27T03:50:49.287Z,100307.53
2017-06-27T03:53:19.921Z,100303.92
2017-06-27T03:55:50.674Z,100299.53
2017-06-27T03:58:20.415Z,100302.16
2017-06-27T04:00:50.148Z,100303.34
2017-06-27T04:03:19.952Z,100300.37
2017-06-27T04:05:49.654Z,100298.14
2017-06-27T04:08:19.577Z,100299.32
2017-06-27T04:10:49.514Z,100306.47
2017-06-27T04:13:19.206Z,100300.83
2017-06-27T04:15:54.104Z,100303.31
2017-06-27T04:18:23.777Z,100302.81
2017-06-27T04:20:53.501Z,100303.95
2017-06-27T04:23:23.160Z,100296.16
2017-06-27T04:25:52.885Z,100296.84
2017-06-27T04:28:22.646Z,100296.81
2017-06-27T04:30:53.121Z,100302.84
2017-06-27T04:33:23.971Z,100314.05
2017-06-27T04:35:53.705Z,100309.46
2017-06-27T04:38:23.381Z,100318.77
2017-06-27T04:40:53.165Z,100311.03
2017-06-27T04:43:22.926Z,100315.23
2017-06-27T04:45:52.646Z,100306.30
2017-06-27T04:48:22.383Z,100311.02
2017-06-27T04:50:52.062Z,100311.92
2017-06-27T04:53:21.805Z,100317.30
2017-06-27T04:55:51.524Z,100314.55
2017-06-27T04:58:21.416Z,100319.09
2017-06-27T05:00:51.692Z,100316.72
2017-06-27T05:03:22.209Z,100318.55
2017-06-27T05:05:52.029Z,100314.89
2017-06-27T05:08:21.805Z,100303.30
2017-06-27T05:10:52.441Z,100306.33
2017-06-27T05:13:22.171Z,100299.95
2017-06-27T05:15:51.865Z,100304.42
2017-06-27T05:18:24.658Z,100300.59
2017-06-27T05:20:54.330Z,100308.19
2017-06-27T05:23:24.831Z,100302.35
2017-06-27T05:25:54.607Z,100296.86
2017-06-27T05:28:24.353Z,100296.95
2017-06-27T05:30:54.066Z,100296.99
2017-06-27T05:33:23.779Z,100299.82
2017-06-27T05:35:53.643Z,100290.18
2017-06-27T05:38:23.893Z,100299.31
2017-06-27T05:40:53.608Z,100302.81
2017-06-27T05:43:23.834Z,100303.70
2017-06-27T05:45:54.136Z,100300.11
2017-06-27T05:48:23.937Z,100305.07
2017-06-27T05:50:54.171Z,100305.76
2017-06-27T05:53:23.911Z,100304.69
2017-06-27T05:55:53.678Z,100297.25
2017-06-27T05:58:23.461Z,100299.91
2017-06-27T06:00:53.186Z,100305.59
2017-06-27T06:03:22.857Z,100305.33
2017-06-27T06:05:52.554Z,100302.56
2017-06-27T06:08:22.334Z,100305.29
2017-06-27T06:10:52.118Z,100302.73
2017-06-27T06:13:21.685Z,100301.10
2017-06-27T06:15:51.352Z,100301.02
2017-06-27T06:18:21.033Z,100304.65
2017-06-27T06:20:50.791Z,100312.06
2017-06-27T06:23:20.589Z,100307.56
2017-06-27T06:25:50.364Z,100309.40
2017-06-27T06:28:20.129Z,100305.27
2017-06-27T06:30:49.910Z,100300.38
2017-06-27T06:33:19.674Z,100300.16
2017-06-27T06:35:49.977Z,100301.34
2017-06-27T06:38:20.314Z,100303.74
2017-06-27T06:40:50.181Z,100302.47
2017-06-27T06:43:19.910Z,100290.22
2017-06-27T06:45:49.658Z,100287.59
2017-06-27T06:48:19.130Z,100301.17
2017-06-27T06:50:48.885Z,100298.84
2017-06-27T06:53:18.564Z,100295.41
2017-06-27T06:55:48.297Z,100292.33
2017-06-27T06:58:18.017Z,100290.68
2017-06-27T07:00:47.701Z,100284.23
2017-06-27T07:03:17.466Z,100292.84
2017-06-27T07:05:47.266Z,100288.50
2017-06-27T07:08:16.966Z,100290.22
2017-06-27T07:10:46.693Z,100290.38
2017-06-27T07:13:16.489Z,100290.22
2017-06-27T07:15:46.242Z,100292.98
2017-06-27T07:18:16.025Z,100288.44
2017-06-27T07:20:45.744Z,100289.42
2017-06-27T07:23:22.879Z,100284.69
2017-06-27T07:25:52.557Z,100290.52
2017-06-27T07:28:22.277Z,100286.23
2017-06-27T07:30:52.875Z,100289.68
2017-06-27T07:33:22.721Z,100286.10
2017-06-27T07:35:52.398Z,100289.92
2017-06-27T07:38:22.125Z,100283.22
2017-06-27T07:40:51.860Z,100290.22
2017-06-27T07:43:21.629Z,100284.85
2017-06-27T07:45:51.363Z,100281.89
2017-06-27T07:48:21.211Z,100280.02
2017-06-27T07:50:50.877Z,100285.86
2017-06-27T07:53:20.633Z,100282.30
2017-06-27T07:55:50.398Z,100279.09
2017-06-27T07:58:20.754Z,100279.05
2017-06-27T08:00:50.461Z,100281.69
2017-06-27T08:03:20.140Z,100278.28
2017-06-27T08:05:49.835Z,100275.69
2017-06-27T08:08:20.285Z,100271.53
2017-06-27T08:10:50.082Z,100273.27
2017-06-27T08:13:19.845Z,100278.70
2017-06-27T08:15:49.541Z,100277.45
2017-06-27T08:18:19.281Z,100274.91
2017-06-27T08:20:49.054Z,100274.37
2017-06-27T08:23:18.858Z,100277.36
2017-06-27T08:25:48.517Z,100277.13
2017-06-27T08:28:18.427Z,100277.94
2017-06-27T08:30:48.215Z,100277.20
2017-06-27T08:33:18.519Z,100282.32
2017-06-27T08:35:48.346Z,100279.75
2017-06-27T08:38:18.017Z,100276.32
2017-06-27T08:40:47.821Z,100271.81
2017-06-27T08:43:17.541Z,100270.74
2017-06-27T08:45:47.254Z,100267.74
2017-06-27T08:48:17.015Z,100266.94
2017-06-27T08:50:47.458Z,100265.83
2017-06-27T08:53:17.189Z,100271.42
2017-06-27T08:55:46.950Z,100265.84
2017-06-27T08:58:16.761Z,100266.00
2017-06-27T09:00:46.614Z,100270.85
2017-06-27T09:03:16.361Z,100267.37
2017-06-27T09:05:46.065Z,100261.86
2017-06-27T09:08:15.819Z,100266.70
2017-06-27T09:10:45.534Z,100267.19
2017-06-27T09:13:15.382Z,100266.75
2017-06-27T09:15:45.158Z,100268.95
2017-06-27T09:18:14.969Z,100260.09
2017-06-27T09:20:44.818Z,100259.45
2017-06-27T09:23:14.497Z,100263.18
2017-06-27T09:25:44.270Z,100258.86
2017-06-27T09:28:14.915Z,100253.28
2017-06-27T09:30:44.594Z,100255.88
2017-06-27T09:33:14.358Z,100264.30
2017-06-27T09:35:44.069Z,100258.92
2017-06-27T09:38:13.821Z,100257.10
2017-06-27T09:40:43.495Z,100254.59
2017-06-27T09:43:13.802Z,100251.34
2017-06-27T09:45:43.562Z,100254.76
2017-06-27T09:48:13.292Z,100243.80
2017-06-27T09:50:43.066Z,100242.48
2017-06-27T09:53:12.743Z,100241.56
2017-06-27T09:55:43.787Z,100232.02
2017-06-27T09:58:13.465Z,100235.53
2017-06-27T10:00:43.297Z,100235.92
2017-06-27T10:03:13.731Z,100232.41
2017-06-27T10:05:43.367Z,100232.62
2017-06-27T10:08:13.123Z,100225.09
2017-06-27T10:10:42.923Z,100220.14
2017-06-27T10:13:12.682Z,100221.19
2017-06-27T10:15:42.446Z,100218.10
2017-06-27T10:18:13.046Z,100213.73
2017-06-27T10:20:42.725Z,100216.31
2017-06-27T10:23:12.389Z,100215.22
2017-06-27T10:25:42.173Z,100217.07
2017-06-27T10:28:12.584Z,100214.31
2017-06-27T10:30:42.415Z,100215.22
2017-06-27T10:33:13.152Z,100213.95
2017-06-27T10:35:43.027Z,100214.53
2017-06-27T10:38:12.714Z,100201.71
2017-06-27T10:40:42.448Z,100195.34
2017-06-27T10:43:12.150Z,100191.56
2017-06-27T10:45:41.879Z,100191.88
2017-06-27T10:48:12.414Z,100187.64
2017-06-27T10:50:42.133Z,100185.82
2017-06-27T10:53:11.854Z,100183.23
2017-06-27T10:55:41.572Z,100179.02
2017-06-27T10:58:11.368Z,100177.00
2017-06-27T11:00:41.189Z,100172.84
2017-06-27T11:03:10.894Z,100163.99
2017-06-27T11:05:40.626Z,100156.27
2017-06-27T11:08:10.360Z,100157.73
2017-06-27T11:10:40.040Z,100150.59
2017-06-27T11:13:17.163Z,100147.28
2017-06-27T11:15:49.997Z,100152.95
2017-06-27T11:18:19.765Z,100146.77
2017-06-27T11:20:49.450Z,100148.73
2017-06-27T11:23:19.197Z,100149.94
2017-06-27T11:25:48.954Z,100146.84
2017-06-27T11:28:18.694Z,100144.27
2017-06-27T11:30:48.434Z,100143.90
2017-06-27T11:33:18.207Z,100137.07
2017-06-27T11:35:47.958Z,100136.53
2017-06-27T11:38:17.734Z,100133.49
2017-06-27T11:40:47.435Z,100125.77
2017-06-27T11:43:17.266Z,100132.37
2017-06-27T11:45:46.961Z,100119.03
2017-06-27T11:48:16.724Z,100115.47
2017-06-27T11:50:46.521Z,100113.91
2017-06-27T11:53:16.219Z,100110.44
2017-06-27T11:55:46.070Z,100103.58
2017-06-27T11:58:15.742Z,100109.84
2017-06-27T12:01:07.442Z,100111.14
2017-06-27T12:03:59.338Z,100106.21
2017-06-27T12:06:40.036Z,100104.47
2017-06-27T12:09:21.365Z,100105.30
2017-06-27T12:11:51.089Z,100109.45
2017-06-27T12:14:21.392Z,100103.31
2017-06-27T12:16:51.260Z,100105.74
2017-06-27T12:19:21.021Z,100098.45
2017-06-27T12:21:50.817Z,100093.02
2017-06-27T12:24:20.549Z,100091.42
2017-06-27T12:26:50.830Z,100090.28
2017-06-27T12:29:20.635Z,100092.10
2017-06-27T12:31:51.077Z,100086.52
2017-06-27T12:34:20.806Z,100083.06
2017-06-27T12:36:50.488Z,100081.95
2017-06-27T12:39:20.282Z,100084.07
2017-06-27T12:41:50.050Z,100079.88
2017-06-27T12:44:19.876Z,100080.43
2017-06-27T12:46:49.630Z,100067.67
2017-06-27T12:49:19.314Z,100059.17
2017-06-27T12:51:49.054Z,100061.98
2017-06-27T12:54:18.822Z,100061.73
2017-06-27T12:56:48.753Z,100060.09
2017-06-27T12:59:18.465Z,100056.33
2017-06-27T13:01:48.245Z,100051.03
2017-06-27T13:04:18.125Z,100054.71
2017-06-27T13:06:47.894Z,100049.14
2017-06-27T13:09:17.728Z,100038.88
2017-06-27T13:11:47.921Z,100044.44
2017-06-27T13:14:18.163Z,100044.13
2017-06-27T13:16:47.624Z,100034.19
2017-06-27T13:19:17.413Z,100032.12
2017-06-27T13:21:47.140Z,100027.75
2017-06-27T13:24:16.862Z,100028.45
2017-06-27T13:26:46.632Z,100034.11
2017-06-27T13:29:17.178Z,100024.58
2017-06-27T13:31:46.879Z,100027.59
2017-06-27T13:34:16.590Z,100024.70
2017-06-27T13:36:46.911Z,100021.76
2017-06-27T13:39:16.654Z,100017.27
2017-06-27T13:41:46.002Z,100022.11
2017-06-27T13:44:15.755Z,100024.53
2017-06-27T13:46:46.238Z,100016.81
2017-06-27T13:49:15.933Z,100006.81
2017-06-27T13:51:46.669Z,100004.81
2017-06-27T13:54:17.031Z,99998.54
2017-06-27T13:56:47.577Z,99998.41
2017-06-27T13:59:17.320Z,99997.77
2017-06-27T14:01:48.063Z,99992.66
2017-06-27T14:04:17.768Z,99993.91
2017-06-27T14:06:47.677Z,99988.77
2017-06-27T14:09:17.420Z,99996.78
2017-06-27T14:11:47.239Z,99997.70
2017-06-27T14:14:17.173Z,99993.53
2017-06-27T14:16:51.970Z,99997.14
2017-06-27T14:19:21.846Z,99996.99
2017-06-27T14:21:52.274Z,99989.96
2017-06-27T14:24:22.561Z,99987.45
2017-06-27T14:26:52.465Z,99983.28
2017-06-27T14:29:22.793Z,99984.19
2017-06-27T14:31:52.510Z,99980.73
2017-06-27T14:34:22.198Z,99975.00
2017-06-27T14:36:51.904Z,99974.41
2017-06-27T14:39:21.642Z,99976.86
2017-06-27T14:41:51.343Z,99974.60
2017-06-27T14:44:21.136Z,99969.91
2017-06-27T14:46:50.893Z,99970.34
2017-06-27T14:49:20.674Z,99965.81
2017-06-27T14:51:50.401Z,99962.87
2017-06-27T14:54:20.132Z,99953.16
2017-06-27T14:56:50.609Z,99944.02
2017-06-27T14:59:20.371Z,99942.36
2017-06-27T15:01:50.146Z,99939.77
2017-06-27T15:04:19.808Z,99943.44
2017-06-27T15:06:49.497Z,99937.17
2017-06-27T15:09:19.538Z,99938.52
2017-06-27T15:11:50.309Z,99944.47
2017-06-27T15:14:21.317Z,99936.28
2017-06-27T15:16:51.542Z,99930.38
2017-06-27T15:19:22.393Z,99927.41
2017-06-27T15:21:52.695Z,99928.28
2017-06-27T15:24:23.525Z,99914.98
2017-06-27T15:26:53.979Z,99912.70
2017-06-27T15:29:25.731Z,99911.56
2017-06-27T15:31:58.463Z,99899.36
2017-06-27T15:34:31.274Z,99896.97
2017-06-27T15:37:01.581Z,99899.47
2017-06-27T15:39:31.910Z,99889.32
2017-06-27T15:42:01.858Z,99893.61
2017-06-27T15:44:33.494Z,99884.13
2017-06-27T15:47:04.085Z,99886.91
2017-06-27T15:49:33.896Z,99887.89
2017-06-27T15:52:03.577Z,99879.03
2017-06-27T15:54:33.322Z,99875.95
2017-06-27T15:57:03.068Z,99870.67
2017-06-27T15:59:32.842Z,99864.28
2017-06-27T16:02:02.688Z,99857.23
2017-06-27T16:04:32.472Z,99853.94
2017-06-27T16:07:02.141Z,99849.27
2017-06-27T16:09:31.927Z,99845.44
2017-06-27T16:12:01.710Z,99844.06
2017-06-27T16:14:31.561Z,99840.80
2017-06-27T16:17:01.334Z,99834.31
2017-06-27T16:19:31.174Z,99831.30
2017-06-27T16:22:00.882Z,99833.02
2017-06-27T16:24:30.615Z,99827.36
2017-06-27T16:27:00.642Z,99833.09
2017-06-27T16:29:30.319Z,99831.08
2017-06-27T16:32:00.062Z,99828.34
2017-06-27T16:34:29.870Z,99834.14
2017-06-27T16:36:59.554Z,99833.50
2017-06-27T16:39:29.317Z,99834.88
2017-06-27T16:41:59.125Z,99833.78
2017-06-27T16:44:30.405Z,99831.03
2017-06-27T16:47:02.085Z,99830.49
2017-06-27T16:49:34.329Z,99821.31
2017-06-27T16:52:05.933Z,99820.27
2017-06-27T16:54:37.769Z,99813.38
2017-06-27T16:57:08.872Z,99809.77
2017-06-27T16:59:40.613Z,99805.56
2017-06-27T17:02:11.155Z,99806.26
2017-06-27T17:04:46.055Z,99798.98
2017-06-27T17:07:17.122Z,99794.48
2017-06-27T17:09:47.322Z,99793.28
2017-06-27T17:12:17.498Z,99795.66
2017-06-27T17:14:47.257Z,99798.89
2017-06-27T17:17:17.749Z,99793.62
2017-06-27T17:19:47.777Z,99790.38
2017-06-27T17:22:18.365Z,99790.83
2017-06-27T17:24:48.893Z,99785.13
2017-06-27T17:27:21.629Z,99785.37
2017-06-27T17:29:53.160Z,99784.31
2017-06-27T17:32:24.972Z,99782.64
2017-06-27T17:34:56.133Z,99780.39
2017-06-27T17:37:26.876Z,99775.77
2017-06-27T17:39:57.634Z,99774.70
2017-06-27T17:42:29.733Z,99773.83
2017-06-27T17:45:06.589Z,99765.17
2017-06-27T17:47:43.527Z,99767.06
2017-06-27T17:50:17.673Z,99759.81
2017-06-27T17:52:49.101Z,99755.63
2017-06-27T17:57:57.399Z,99756.56
2017-06-27T18:00:29.092Z,99756.37
2017-06-27T18:03:01.383Z,99752.41
2017-06-27T18:05:33.920Z,99752.05
2017-06-27T18:08:06.053Z,99750.08
2017-06-27T18:10:38.447Z,99757.42
2017-06-27T18:13:10.964Z,99755.63
2017-06-27T18:15:43.730Z,99753.05
2017-06-27T18:18:16.502Z,99756.78
2017-06-27T18:20:49.523Z,99760.05
2017-06-27T18:23:22.441Z,99762.53
2017-06-27T18:25:54.490Z,99759.20
2017-06-27T18:28:27.561Z,99760.03
2017-06-27T18:31:00.184Z,99761.03
2017-06-27T18:33:33.872Z,99764.70
2017-06-27T18:36:06.142Z,99767.05
2017-06-27T18:38:40.328Z,99767.86
2017-06-27T18:41:12.076Z,99765.75
2017-06-27T18:43:45.821Z,99763.29
2017-06-27T18:46:18.049Z,99764.00
2017-06-27T18:48:50.406Z,99766.92
2017-06-27T18:51:22.820Z,99764.64
2017-06-27T18:53:54.857Z,99758.25
2017-06-27T18:56:26.988Z,99764.92
2017-06-27T18:58:59.439Z,99763.73
2017-06-27T19:01:33.412Z,99766.60
2017-06-27T19:04:06.263Z,99758.36
2017-06-27T19:06:39.230Z,99755.55
2017-06-27T19:09:11.881Z,99759.22
2017-06-27T19:11:44.150Z,99757.72
2017-06-27T19:14:16.567Z,99754.28
2017-06-27T19:16:47.390Z,99744.14
2017-06-27T19:19:19.393Z,99742.10
2017-06-27T19:21:51.037Z,99744.14
2017-06-27T19:24:22.442Z,99743.25
2017-06-27T19:26:52.994Z,99737.56
2017-06-27T19:29:24.081Z,99735.94
2017-06-27T19:31:55.376Z,99737.28
2017-06-27T19:34:27.973Z,99733.95
2017-06-27T19:37:00.255Z,99728.91
2017-06-27T19:39:32.858Z,99726.32
2017-06-27T19:42:04.952Z,99725.75
2017-06-27T19:44:37.075Z,99720.73
2017-06-27T19:47:10.737Z,99723.95
2017-06-27T19:49:43.480Z,99722.45
2017-06-27T19:52:16.837Z,99721.97
2017-06-27T19:54:48.325Z,99716.61
2017-06-27T19:57:21.170Z,99715.27
2017-06-27T19:59:55.534Z,99711.20
2017-06-27T20:02:25.927Z,99708.83
2017-06-27T20:04:55.620Z,99709.38
2017-06-27T20:07:25.393Z,99699.52
2017-06-27T20:09:54.805Z,99692.55
2017-06-27T20:12:25.012Z,99690.16
2017-06-27T20:14:54.832Z,99694.41
2017-06-27T20:17:25.142Z,99699.39
2017-06-27T20:19:54.850Z,99700.29
2017-06-27T20:22:24.551Z,99690.77
2017-06-27T20:24:54.481Z,99694.95
2017-06-27T20:27:24.173Z,99691.58
2017-06-27T20:29:53.934Z,99688.91
2017-06-27T20:32:23.931Z,99696.17
2017-06-27T20:34:53.846Z,99688.98
2017-06-27T20:37:23.767Z,99684.95
2017-06-27T20:39:53.684Z,99683.11
2017-06-27T20:42:23.410Z,99683.28
2017-06-27T20:44:53.081Z,99685.55
2017-06-27T20:47:22.983Z,99682.98
2017-06-27T20:49:53.561Z,99678.38
2017-06-27T20:52:23.273Z,99679.86
2017-06-27T20:54:53.034Z,99683.55
2017-06-27T20:57:23.529Z,99676.28
2017-06-27T20:59:55.172Z,99676.89
2017-06-27T21:02:24.844Z,99669.31
2017-06-27T21:04:54.706Z,99657.05
2017-06-27T21:07:24.450Z,99660.16
2017-06-27T21:09:54.458Z,99664.55
2017-06-27T21:12:24.277Z,99665.88
2017-06-27T21:14:54.063Z,99667.97
2017-06-27T21:17:24.094Z,99668.88
2017-06-27T21:19:53.783Z,99667.33
2017-06-27T21:22:23.726Z,99664.38
2017-06-27T21:24:53.442Z,99663.73
2017-06-27T21:27:23.139Z,99667.53
2017-06-27T21:29:52.710Z,99668.31
2017-06-27T21:32:22.457Z,99665.23
2017-06-27T21:34:52.397Z,99665.22
2017-06-27T21:37:22.822Z,99662.14
2017-06-27T21:39:52.547Z,99662.02
2017-06-27T21:42:21.932Z,99658.03
2017-06-27T21:44:51.856Z,99653.27
2017-06-27T21:47:21.517Z,99653.80
2017-06-27T21:49:51.974Z,99651.28
2017-06-27T21:52:21.730Z,99656.98
2017-06-27T21:54:51.589Z,99657.08
2017-06-27T21:57:21.321Z,99651.95
2017-06-27T21:59:51.110Z,99647.66
2017-06-27T22:02:26.676Z,99652.53
2017-06-27T22:04:59.454Z,99644.46
2017-06-27T22:07:29.192Z,99641.61
2017-06-27T22:09:59.529Z,99641.45
2017-06-27T22:12:29.910Z,99635.45
2017-06-27T22:14:59.689Z,99631.95
2017-06-27T22:17:29.404Z,99623.12
2017-06-27T22:19:59.127Z,99624.50
2017-06-27T22:22:28.977Z,99627.05
2017-06-27T22:24:58.737Z,99624.66
2017-06-27T22:27:28.431Z,99623.70
2017-06-27T22:29:58.175Z,99624.02
2017-06-27T22:32:27.873Z,99626.87
2017-06-27T22:34:57.615Z,99620.50
2017-06-27T22:37:27.291Z,99621.38
2017-06-27T22:39:57.029Z,99613.84
2017-06-27T22:42:26.913Z,99614.89
2017-06-27T22:44:56.638Z,99615.64
2017-06-27T22:47:26.398Z,99611.28
2017-06-27T22:49:56.203Z,99620.63
2017-06-27T22:52:25.993Z,99609.86
2017-06-27T22:54:55.731Z,99608.01
2017-06-27T22:57:25.542Z,99600.72
2017-06-27T22:59:55.467Z,99599.13
2017-06-27T23:02:25.172Z,99604.02
2017-06-27T23:04:54.858Z,99604.80
2017-06-27T23:07:24.630Z,99588.83
2017-06-27T23:09:54.421Z,99593.14
2017-06-27T23:12:24.262Z,99594.60
2017-06-27T23:14:54.006Z,99588.06
2017-06-27T23:17:23.770Z,99585.37
2017-06-27T23:19:54.108Z,99583.47
2017-06-27T23:22:24.649Z,99581.43
2017-06-27T23:24:54.463Z,99581.05
2017-06-27T23:27:24.251Z,99578.98
2017-06-27T23:29:54.068Z,99581.88
2017-06-27T23:32:24.360Z,99584.08
2017-06-27T23:34:54.088Z,99575.95
2017-06-27T23:37:23.870Z,99576.11
2017-06-27T23:39:53.544Z,99571.61
2017-06-27T23:42:23.326Z,99567.47
2017-06-27T23:44:53.942Z,99555.62
2017-06-27T23:47:23.670Z,99553.80
2017-06-27T23:49:53.639Z,99547.55
2017-06-27T23:52:23.435Z,99545.64
2017-06-27T23:54:53.309Z,99544.42
2017-06-27T23:57:23.626Z,99532.92
2017-06-27T23:59:53.390Z,99535.98
